sensor_id;sensor_type;location;lat;lon;timestamp;P1;durP1;ratioP1;P2;durP2;ratioP2
45318;SDS011;31057;48.498;32.260;2023-08-12T00:03:54;11.68;;;10.45;;
45318;SDS011;31057;48.498;32.260;2023-08-12T00:07:59;10.63;;;9.63;;
45318;SDS011;31057;48.498;32.260;2023-08-12T00:10:01;11.57;;;10.43;;
45318;SDS011;31057;48.498;32.260;2023-08-12T00:12:05;10.93;;;9.82;;
45318;SDS011;31057;48.498;32.260;2023-08-12T00:16:09;12.07;;;10.95;;
45318;SDS011;31057;48.498;32.260;2023-08-12T00:18:11;12.70;;;10.95;;
45318;SDS011;31057;48.498;32.260;2023-08-12T00:22:15;10.90;;;9.82;;
45318;SDS011;31057;48.498;32.260;2023-08-12T00:24:19;12.05;;;9.80;;
45318;SDS011;31057;48.498;32.260;2023-08-12T00:26:23;11.68;;;10.05;;
45318;SDS011;31057;48.498;32.260;2023-08-12T00:28:25;10.15;;;9.15;;
45318;SDS011;31057;48.498;32.260;2023-08-12T00:32:29;11.40;;;9.38;;
45318;SDS011;31057;48.498;32.260;2023-08-12T00:36:33;17.30;;;15.30;;
45318;SDS011;31057;48.498;32.260;2023-08-12T00:38:35;24.90;;;20.00;;
45318;SDS011;31057;48.498;32.260;2023-08-12T00:40:37;32.58;;;25.17;;
45318;SDS011;31057;48.498;32.260;2023-08-12T00:42:39;28.85;;;22.35;;
45318;SDS011;31057;48.498;32.260;2023-08-12T00:46:43;14.30;;;12.80;;
45318;SDS011;31057;48.498;32.260;2023-08-12T00:48:45;14.73;;;10.77;;
45318;SDS011;31057;48.498;32.260;2023-08-12T00:50:47;13.18;;;11.25;;
45318;SDS011;31057;48.498;32.260;2023-08-12T00:54:52;12.23;;;10.85;;
45318;SDS011;31057;48.498;32.260;2023-08-12T00:56:54;12.90;;;9.65;;
45318;SDS011;31057;48.498;32.260;2023-08-12T00:59:00;9.48;;;8.43;;
45318;SDS011;31057;48.498;32.260;2023-08-12T01:01:06;11.82;;;9.48;;
45318;SDS011;31057;48.498;32.260;2023-08-12T01:03:09;11.02;;;9.35;;
45318;SDS011;31057;48.498;32.260;2023-08-12T01:05:11;11.65;;;9.95;;
45318;SDS011;31057;48.498;32.260;2023-08-12T01:07:13;11.35;;;9.82;;
45318;SDS011;31057;48.498;32.260;2023-08-12T01:09:15;11.02;;;10.02;;
45318;SDS011;31057;48.498;32.260;2023-08-12T01:11:21;10.73;;;9.55;;
45318;SDS011;31057;48.498;32.260;2023-08-12T01:13:37;9.15;;;8.35;;
45318;SDS011;31057;48.498;32.260;2023-08-12T01:15:48;9.65;;;8.85;;
45318;SDS011;31057;48.498;32.260;2023-08-12T01:17:54;9.77;;;8.85;;
45318;SDS011;31057;48.498;32.260;2023-08-12T01:19:57;9.75;;;8.77;;
45318;SDS011;31057;48.498;32.260;2023-08-12T01:22:01;10.23;;;8.63;;
45318;SDS011;31057;48.498;32.260;2023-08-12T01:24:05;11.13;;;8.65;;
45318;SDS011;31057;48.498;32.260;2023-08-12T01:26:07;11.73;;;8.70;;
45318;SDS011;31057;48.498;32.260;2023-08-12T01:28:09;9.38;;;8.48;;
45318;SDS011;31057;48.498;32.260;2023-08-12T01:30:11;10.82;;;8.82;;
45318;SDS011;31057;48.498;32.260;2023-08-12T01:32:30;10.10;;;8.52;;
45318;SDS011;31057;48.498;32.260;2023-08-12T01:36:59;9.15;;;8.25;;
45318;SDS011;31057;48.498;32.260;2023-08-12T01:39:06;9.00;;;8.15;;
45318;SDS011;31057;48.498;32.260;2023-08-12T01:41:11;11.20;;;8.10;;
45318;SDS011;31057;48.498;32.260;2023-08-12T01:43:14;9.45;;;8.43;;
45318;SDS011;31057;48.498;32.260;2023-08-12T01:49:21;9.23;;;8.32;;
45318;SDS011;31057;48.498;32.260;2023-08-12T01:51:24;8.43;;;7.63;;
45318;SDS011;31057;48.498;32.260;2023-08-12T01:53:26;9.00;;;8.10;;
45318;SDS011;31057;48.498;32.260;2023-08-12T01:55:28;8.13;;;7.38;;
45318;SDS011;31057;48.498;32.260;2023-08-12T01:57:30;7.25;;;6.55;;
45318;SDS011;31057;48.498;32.260;2023-08-12T01:59:32;8.57;;;7.68;;
45318;SDS011;31057;48.498;32.260;2023-08-12T02:01:34;8.35;;;6.75;;
45318;SDS011;31057;48.498;32.260;2023-08-12T02:03:36;9.63;;;8.50;;
45318;SDS011;31057;48.498;32.260;2023-08-12T02:07:40;10.98;;;8.32;;
45318;SDS011;31057;48.498;32.260;2023-08-12T02:09:42;8.32;;;7.53;;
45318;SDS011;31057;48.498;32.260;2023-08-12T02:11:44;8.85;;;7.95;;
45318;SDS011;31057;48.498;32.260;2023-08-12T02:13:46;8.30;;;7.50;;
45318;SDS011;31057;48.498;32.260;2023-08-12T02:15:48;8.65;;;7.85;;
45318;SDS011;31057;48.498;32.260;2023-08-12T02:17:50;9.18;;;8.20;;
45318;SDS011;31057;48.498;32.260;2023-08-12T02:19:52;8.70;;;7.82;;
45318;SDS011;31057;48.498;32.260;2023-08-12T02:21:54;8.85;;;7.28;;
45318;SDS011;31057;48.498;32.260;2023-08-12T02:23:56;8.45;;;7.65;;
45318;SDS011;31057;48.498;32.260;2023-08-12T02:25:57;9.63;;;8.68;;
45318;SDS011;31057;48.498;32.260;2023-08-12T02:27:59;8.88;;;7.78;;
45318;SDS011;31057;48.498;32.260;2023-08-12T02:30:02;9.45;;;8.07;;
45318;SDS011;31057;48.498;32.260;2023-08-12T02:32:04;8.70;;;7.90;;
45318;SDS011;31057;48.498;32.260;2023-08-12T02:36:08;10.45;;;7.63;;
45318;SDS011;31057;48.498;32.260;2023-08-12T02:38:11;9.10;;;8.30;;
45318;SDS011;31057;48.498;32.260;2023-08-12T02:40:13;10.57;;;8.55;;
45318;SDS011;31057;48.498;32.260;2023-08-12T02:42:15;10.63;;;8.55;;
45318;SDS011;31057;48.498;32.260;2023-08-12T02:46:18;17.75;;;16.02;;
45318;SDS011;31057;48.498;32.260;2023-08-12T02:48:21;41.75;;;38.58;;
45318;SDS011;31057;48.498;32.260;2023-08-12T02:52:24;48.45;;;44.85;;
45318;SDS011;31057;48.498;32.260;2023-08-12T02:54:26;53.08;;;49.03;;
45318;SDS011;31057;48.498;32.260;2023-08-12T02:56:28;53.25;;;49.03;;
45318;SDS011;31057;48.498;32.260;2023-08-12T02:58:30;49.67;;;45.83;;
45318;SDS011;31057;48.498;32.260;2023-08-12T03:02:34;36.17;;;33.13;;
45318;SDS011;31057;48.498;32.260;2023-08-12T03:04:36;47.10;;;43.30;;
45318;SDS011;31057;48.498;32.260;2023-08-12T03:06:38;27.23;;;24.58;;
45318;SDS011;31057;48.498;32.260;2023-08-12T03:08:40;26.10;;;24.00;;
45318;SDS011;31057;48.498;32.260;2023-08-12T03:10:43;18.23;;;16.63;;
45318;SDS011;31057;48.498;32.260;2023-08-12T03:12:45;15.45;;;14.00;;
45318;SDS011;31057;48.498;32.260;2023-08-12T03:14:47;18.38;;;16.58;;
45318;SDS011;31057;48.498;32.260;2023-08-12T03:16:49;14.15;;;12.80;;
45318;SDS011;31057;48.498;32.260;2023-08-12T03:18:51;15.95;;;14.43;;
45318;SDS011;31057;48.498;32.260;2023-08-12T03:22:55;13.57;;;12.32;;
45318;SDS011;31057;48.498;32.260;2023-08-12T03:24:57;12.23;;;11.13;;
45318;SDS011;31057;48.498;32.260;2023-08-12T03:26:59;12.20;;;10.88;;
45318;SDS011;31057;48.498;32.260;2023-08-12T03:31:03;10.57;;;9.60;;
45318;SDS011;31057;48.498;32.260;2023-08-12T03:35:07;11.60;;;10.40;;
45318;SDS011;31057;48.498;32.260;2023-08-12T03:37:09;14.60;;;10.32;;
45318;SDS011;31057;48.498;32.260;2023-08-12T03:39:11;10.05;;;9.00;;
45318;SDS011;31057;48.498;32.260;2023-08-12T03:41:13;11.10;;;9.82;;
45318;SDS011;31057;48.498;32.260;2023-08-12T03:43:15;11.40;;;8.65;;
45318;SDS011;31057;48.498;32.260;2023-08-12T03:47:19;9.32;;;8.25;;
45318;SDS011;31057;48.498;32.260;2023-08-12T03:49:31;12.20;;;9.82;;
45318;SDS011;31057;48.498;32.260;2023-08-12T03:51:33;10.40;;;9.40;;
45318;SDS011;31057;48.498;32.260;2023-08-12T03:53:35;12.93;;;9.77;;
45318;SDS011;31057;48.498;32.260;2023-08-12T03:55:37;14.75;;;13.13;;
45318;SDS011;31057;48.498;32.260;2023-08-12T03:59:41;18.85;;;17.08;;
45318;SDS011;31057;48.498;32.260;2023-08-12T04:01:43;16.70;;;15.02;;
45318;SDS011;31057;48.498;32.260;2023-08-12T04:03:44;23.10;;;21.20;;
45318;SDS011;31057;48.498;32.260;2023-08-12T04:07:53;28.23;;;25.80;;
45318;SDS011;31057;48.498;32.260;2023-08-12T04:09:55;28.98;;;26.60;;
45318;SDS011;31057;48.498;32.260;2023-08-12T04:11:57;31.05;;;28.75;;
45318;SDS011;31057;48.498;32.260;2023-08-12T04:14:00;27.52;;;25.08;;
45318;SDS011;31057;48.498;32.260;2023-08-12T04:16:02;27.20;;;24.73;;
45318;SDS011;31057;48.498;32.260;2023-08-12T04:18:04;26.90;;;24.58;;
45318;SDS011;31057;48.498;32.260;2023-08-12T04:24:11;26.67;;;24.13;;
45318;SDS011;31057;48.498;32.260;2023-08-12T04:26:14;21.60;;;19.30;;
45318;SDS011;31057;48.498;32.260;2023-08-12T04:28:16;28.45;;;26.17;;
45318;SDS011;31057;48.498;32.260;2023-08-12T04:32:20;23.55;;;21.25;;
45318;SDS011;31057;48.498;32.260;2023-08-12T04:34:22;18.85;;;16.75;;
45318;SDS011;31057;48.498;32.260;2023-08-12T04:36:23;13.88;;;12.68;;
45318;SDS011;31057;48.498;32.260;2023-08-12T04:38:27;13.85;;;12.52;;
45318;SDS011;31057;48.498;32.260;2023-08-12T04:42:31;13.73;;;11.05;;
45318;SDS011;31057;48.498;32.260;2023-08-12T04:44:33;13.93;;;10.88;;
45318;SDS011;31057;48.498;32.260;2023-08-12T04:48:37;11.68;;;10.48;;
45318;SDS011;31057;48.498;32.260;2023-08-12T04:50:39;11.23;;;10.13;;
45318;SDS011;31057;48.498;32.260;2023-08-12T04:54:42;12.13;;;10.70;;
45318;SDS011;31057;48.498;32.260;2023-08-12T04:56:44;12.77;;;10.55;;
45318;SDS011;31057;48.498;32.260;2023-08-12T04:58:46;11.40;;;10.10;;
45318;SDS011;31057;48.498;32.260;2023-08-12T05:02:51;13.15;;;10.13;;
45318;SDS011;31057;48.498;32.260;2023-08-12T05:06:55;12.68;;;9.90;;
45318;SDS011;31057;48.498;32.260;2023-08-12T05:10:59;11.20;;;8.75;;
45318;SDS011;31057;48.498;32.260;2023-08-12T05:13:01;10.80;;;8.55;;
45318;SDS011;31057;48.498;32.260;2023-08-12T05:15:03;9.98;;;8.80;;
45318;SDS011;31057;48.498;32.260;2023-08-12T05:17:06;9.77;;;8.82;;
45318;SDS011;31057;48.498;32.260;2023-08-12T05:21:10;11.80;;;9.60;;
45318;SDS011;31057;48.498;32.260;2023-08-12T05:25:13;10.55;;;9.45;;
45318;SDS011;31057;48.498;32.260;2023-08-12T05:29:17;12.43;;;10.57;;
45318;SDS011;31057;48.498;32.260;2023-08-12T05:31:19;11.65;;;10.55;;
45318;SDS011;31057;48.498;32.260;2023-08-12T05:33:21;11.00;;;9.77;;
45318;SDS011;31057;48.498;32.260;2023-08-12T05:35:24;10.13;;;9.13;;
45318;SDS011;31057;48.498;32.260;2023-08-12T05:37:26;10.63;;;9.25;;
45318;SDS011;31057;48.498;32.260;2023-08-12T05:39:28;9.57;;;8.50;;
45318;SDS011;31057;48.498;32.260;2023-08-12T05:43:32;14.48;;;12.02;;
45318;SDS011;31057;48.498;32.260;2023-08-12T05:47:35;9.07;;;7.20;;
45318;SDS011;31057;48.498;32.260;2023-08-12T05:49:38;7.22;;;6.53;;
45318;SDS011;31057;48.498;32.260;2023-08-12T05:51:40;7.95;;;7.07;;
45318;SDS011;31057;48.498;32.260;2023-08-12T05:53:42;9.20;;;6.75;;
45318;SDS011;31057;48.498;32.260;2023-08-12T05:57:46;7.13;;;6.43;;
45318;SDS011;31057;48.498;32.260;2023-08-12T06:01:50;9.10;;;6.07;;
45318;SDS011;31057;48.498;32.260;2023-08-12T06:03:52;7.28;;;6.38;;
45318;SDS011;31057;48.498;32.260;2023-08-12T06:05:54;8.52;;;6.97;;
45318;SDS011;31057;48.498;32.260;2023-08-12T06:09:58;8.85;;;6.43;;
45318;SDS011;31057;48.498;32.260;2023-08-12T06:12:01;8.20;;;6.57;;
45318;SDS011;31057;48.498;32.260;2023-08-12T06:16:05;7.88;;;5.82;;
45318;SDS011;31057;48.498;32.260;2023-08-12T06:18:07;6.50;;;5.82;;
45318;SDS011;31057;48.498;32.260;2023-08-12T06:22:12;6.60;;;5.35;;
45318;SDS011;31057;48.498;32.260;2023-08-12T06:24:14;7.60;;;6.07;;
45318;SDS011;31057;48.498;32.260;2023-08-12T06:26:16;10.15;;;6.07;;
45318;SDS011;31057;48.498;32.260;2023-08-12T06:30:20;8.07;;;5.70;;
45318;SDS011;31057;48.498;32.260;2023-08-12T06:34:24;16.27;;;13.20;;
45318;SDS011;31057;48.498;32.260;2023-08-12T06:38:27;8.90;;;5.43;;
45318;SDS011;31057;48.498;32.260;2023-08-12T06:42:32;9.35;;;5.05;;
45318;SDS011;31057;48.498;32.260;2023-08-12T06:46:35;7.95;;;5.18;;
45318;SDS011;31057;48.498;32.260;2023-08-12T06:50:39;7.45;;;5.43;;
45318;SDS011;31057;48.498;32.260;2023-08-12T06:54:43;6.25;;;5.25;;
45318;SDS011;31057;48.498;32.260;2023-08-12T06:56:45;6.57;;;5.10;;
45318;SDS011;31057;48.498;32.260;2023-08-12T06:58:47;9.32;;;6.05;;
45318;SDS011;31057;48.498;32.260;2023-08-12T07:00:49;7.65;;;5.47;;
45318;SDS011;31057;48.498;32.260;2023-08-12T07:02:53;8.50;;;6.45;;
45318;SDS011;31057;48.498;32.260;2023-08-12T07:06:57;17.13;;;11.38;;
45318;SDS011;31057;48.498;32.260;2023-08-12T07:09:00;9.75;;;8.38;;
45318;SDS011;31057;48.498;32.260;2023-08-12T07:13:04;13.68;;;10.95;;
45318;SDS011;31057;48.498;32.260;2023-08-12T07:17:08;13.27;;;10.90;;
45318;SDS011;31057;48.498;32.260;2023-08-12T07:21:15;10.90;;;9.80;;
45318;SDS011;31057;48.498;32.260;2023-08-12T07:25:20;8.38;;;5.63;;
45318;SDS011;31057;48.498;32.260;2023-08-12T07:27:22;5.72;;;4.90;;
45318;SDS011;31057;48.498;32.260;2023-08-12T07:31:26;7.93;;;6.55;;
45318;SDS011;31057;48.498;32.260;2023-08-12T07:33:28;8.35;;;7.53;;
45318;SDS011;31057;48.498;32.260;2023-08-12T07:37:32;6.75;;;5.25;;
45318;SDS011;31057;48.498;32.260;2023-08-12T07:39:36;7.13;;;4.68;;
45318;SDS011;31057;48.498;32.260;2023-08-12T07:43:39;11.25;;;6.07;;
45318;SDS011;31057;48.498;32.260;2023-08-12T07:47:48;8.07;;;6.43;;
45318;SDS011;31057;48.498;32.260;2023-08-12T07:49:51;6.55;;;5.40;;
45318;SDS011;31057;48.498;32.260;2023-08-12T07:51:53;6.68;;;5.10;;
45318;SDS011;31057;48.498;32.260;2023-08-12T07:53:55;7.53;;;4.70;;
45318;SDS011;31057;48.498;32.260;2023-08-12T07:57:59;7.38;;;5.05;;
45318;SDS011;31057;48.498;32.260;2023-08-12T08:02:04;5.80;;;4.10;;
45318;SDS011;31057;48.498;32.260;2023-08-12T08:04:06;6.18;;;4.20;;
45318;SDS011;31057;48.498;32.260;2023-08-12T08:08:10;4.50;;;4.00;;
45318;SDS011;31057;48.498;32.260;2023-08-12T08:10:12;5.15;;;4.65;;
45318;SDS011;31057;48.498;32.260;2023-08-12T08:14:16;6.28;;;4.30;;
45318;SDS011;31057;48.498;32.260;2023-08-12T08:16:18;7.15;;;4.28;;
45318;SDS011;31057;48.498;32.260;2023-08-12T08:18:20;5.28;;;4.13;;
45318;SDS011;31057;48.498;32.260;2023-08-12T08:20:22;6.65;;;3.70;;
45318;SDS011;31057;48.498;32.260;2023-08-12T08:24:26;5.10;;;4.22;;
45318;SDS011;31057;48.498;32.260;2023-08-12T08:26:28;5.38;;;4.03;;
45318;SDS011;31057;48.498;32.260;2023-08-12T08:28:30;7.20;;;4.05;;
45318;SDS011;31057;48.498;32.260;2023-08-12T08:32:34;6.47;;;3.90;;
45318;SDS011;31057;48.498;32.260;2023-08-12T08:36:38;5.22;;;3.60;;
45318;SDS011;31057;48.498;32.260;2023-08-12T08:38:40;4.85;;;3.47;;
45318;SDS011;31057;48.498;32.260;2023-08-12T08:42:44;4.88;;;3.60;;
45318;SDS011;31057;48.498;32.260;2023-08-12T08:44:53;6.03;;;5.28;;
45318;SDS011;31057;48.498;32.260;2023-08-12T08:46:57;5.88;;;4.45;;
45318;SDS011;31057;48.498;32.260;2023-08-12T08:49:02;5.40;;;3.95;;
45318;SDS011;31057;48.498;32.260;2023-08-12T08:51:05;6.35;;;3.63;;
45318;SDS011;31057;48.498;32.260;2023-08-12T08:53:09;7.43;;;6.05;;
45318;SDS011;31057;48.498;32.260;2023-08-12T08:55:11;6.05;;;4.15;;
45318;SDS011;31057;48.498;32.260;2023-08-12T08:57:14;7.15;;;3.80;;
45318;SDS011;31057;48.498;32.260;2023-08-12T08:59:36;4.63;;;3.50;;
45318;SDS011;31057;48.498;32.260;2023-08-12T09:03:41;9.25;;;5.82;;
45318;SDS011;31057;48.498;32.260;2023-08-12T09:05:44;6.63;;;5.65;;
45318;SDS011;31057;48.498;32.260;2023-08-12T09:07:46;5.10;;;3.90;;
45318;SDS011;31057;48.498;32.260;2023-08-12T09:09:50;6.60;;;4.05;;
45318;SDS011;31057;48.498;32.260;2023-08-12T09:11:55;6.22;;;3.58;;
45318;SDS011;31057;48.498;32.260;2023-08-12T09:13:57;5.53;;;3.40;;
45318;SDS011;31057;48.498;32.260;2023-08-12T09:15:59;7.10;;;3.78;;
45318;SDS011;31057;48.498;32.260;2023-08-12T09:20:06;5.32;;;3.50;;
45318;SDS011;31057;48.498;32.260;2023-08-12T09:22:13;4.07;;;3.10;;
45318;SDS011;31057;48.498;32.260;2023-08-12T09:24:15;5.38;;;3.40;;
45318;SDS011;31057;48.498;32.260;2023-08-12T09:26:18;7.32;;;3.63;;
45318;SDS011;31057;48.498;32.260;2023-08-12T09:28:21;7.65;;;4.40;;
45318;SDS011;31057;48.498;32.260;2023-08-12T09:30:29;7.10;;;3.83;;
45318;SDS011;31057;48.498;32.260;2023-08-12T09:32:35;4.03;;;3.63;;
45318;SDS011;31057;48.498;32.260;2023-08-12T09:34:37;6.47;;;3.95;;
45318;SDS011;31057;48.498;32.260;2023-08-12T09:36:47;6.25;;;3.17;;
45318;SDS011;31057;48.498;32.260;2023-08-12T09:38:49;5.38;;;3.80;;
45318;SDS011;31057;48.498;32.260;2023-08-12T09:40:51;6.07;;;3.33;;
45318;SDS011;31057;48.498;32.260;2023-08-12T09:42:54;4.32;;;3.28;;
45318;SDS011;31057;48.498;32.260;2023-08-12T09:44:57;4.03;;;3.05;;
45318;SDS011;31057;48.498;32.260;2023-08-12T09:49:01;7.28;;;3.38;;
45318;SDS011;31057;48.498;32.260;2023-08-12T09:51:06;11.82;;;4.22;;
45318;SDS011;31057;48.498;32.260;2023-08-12T09:53:09;6.75;;;3.60;;
45318;SDS011;31057;48.498;32.260;2023-08-12T09:55:11;4.97;;;3.28;;
45318;SDS011;31057;48.498;32.260;2023-08-12T09:57:20;5.78;;;3.65;;
45318;SDS011;31057;48.498;32.260;2023-08-12T09:59:27;6.38;;;3.55;;
45318;SDS011;31057;48.498;32.260;2023-08-12T10:01:36;5.50;;;3.42;;
45318;SDS011;31057;48.498;32.260;2023-08-12T10:03:39;6.85;;;3.42;;
45318;SDS011;31057;48.498;32.260;2023-08-12T10:05:42;6.03;;;3.50;;
45318;SDS011;31057;48.498;32.260;2023-08-12T10:07:45;7.88;;;4.60;;
45318;SDS011;31057;48.498;32.260;2023-08-12T10:09:48;6.03;;;3.80;;
45318;SDS011;31057;48.498;32.260;2023-08-12T10:11:51;4.03;;;3.55;;
45318;SDS011;31057;48.498;32.260;2023-08-12T10:13:54;4.15;;;3.47;;
45318;SDS011;31057;48.498;32.260;2023-08-12T10:15:58;6.05;;;4.07;;
45318;SDS011;31057;48.498;32.260;2023-08-12T10:18:00;4.55;;;3.15;;
45318;SDS011;31057;48.498;32.260;2023-08-12T10:20:06;4.38;;;3.72;;
45318;SDS011;31057;48.498;32.260;2023-08-12T10:22:09;5.18;;;3.08;;
45318;SDS011;31057;48.498;32.260;2023-08-12T10:24:12;6.22;;;3.58;;
45318;SDS011;31057;48.498;32.260;2023-08-12T10:26:17;4.20;;;3.17;;
45318;SDS011;31057;48.498;32.260;2023-08-12T10:28:19;8.55;;;7.07;;
45318;SDS011;31057;48.498;32.260;2023-08-12T10:30:21;4.75;;;2.90;;
45318;SDS011;31057;48.498;32.260;2023-08-12T10:32:26;6.13;;;3.40;;
45318;SDS011;31057;48.498;32.260;2023-08-12T10:34:30;6.93;;;6.03;;
45318;SDS011;31057;48.498;32.260;2023-08-12T10:36:32;4.57;;;3.10;;
45318;SDS011;31057;48.498;32.260;2023-08-12T10:38:40;4.05;;;3.20;;
45318;SDS011;31057;48.498;32.260;2023-08-12T10:40:45;4.38;;;3.13;;
45318;SDS011;31057;48.498;32.260;2023-08-12T10:42:47;8.20;;;4.55;;
45318;SDS011;31057;48.498;32.260;2023-08-12T10:44:50;5.25;;;3.40;;
45318;SDS011;31057;48.498;32.260;2023-08-12T10:46:53;4.93;;;3.50;;
45318;SDS011;31057;48.498;32.260;2023-08-12T10:48:56;6.50;;;3.70;;
45318;SDS011;31057;48.498;32.260;2023-08-12T10:51:00;3.78;;;3.20;;
45318;SDS011;31057;48.498;32.260;2023-08-12T10:55:24;7.85;;;4.20;;
45318;SDS011;31057;48.498;32.260;2023-08-12T10:57:44;4.97;;;3.92;;
45318;SDS011;31057;48.498;32.260;2023-08-12T10:59:51;6.10;;;4.18;;
45318;SDS011;31057;48.498;32.260;2023-08-12T11:01:54;5.68;;;4.50;;
45318;SDS011;31057;48.498;32.260;2023-08-12T11:04:18;6.05;;;4.35;;
45318;SDS011;31057;48.498;32.260;2023-08-12T11:06:20;5.47;;;3.72;;
45318;SDS011;31057;48.498;32.260;2023-08-12T11:10:30;3.70;;;3.20;;
45318;SDS011;31057;48.498;32.260;2023-08-12T11:12:35;4.15;;;3.30;;
45318;SDS011;31057;48.498;32.260;2023-08-12T11:14:47;5.38;;;3.10;;
45318;SDS011;31057;48.498;32.260;2023-08-12T11:16:50;7.10;;;4.43;;
45318;SDS011;31057;48.498;32.260;2023-08-12T11:18:54;6.95;;;4.25;;
45318;SDS011;31057;48.498;32.260;2023-08-12T11:20:57;5.45;;;3.88;;
45318;SDS011;31057;48.498;32.260;2023-08-12T11:23:00;4.72;;;4.10;;
45318;SDS011;31057;48.498;32.260;2023-08-12T11:25:03;6.07;;;3.28;;
45318;SDS011;31057;48.498;32.260;2023-08-12T11:27:09;4.53;;;4.13;;
45318;SDS011;31057;48.498;32.260;2023-08-12T11:29:14;3.63;;;3.30;;
45318;SDS011;31057;48.498;32.260;2023-08-12T11:31:16;6.03;;;3.30;;
45318;SDS011;31057;48.498;32.260;2023-08-12T11:33:19;5.25;;;3.83;;
45318;SDS011;31057;48.498;32.260;2023-08-12T11:35:23;6.82;;;4.05;;
45318;SDS011;31057;48.498;32.260;2023-08-12T11:37:25;6.63;;;3.70;;
45318;SDS011;31057;48.498;32.260;2023-08-12T11:39:28;12.00;;;3.97;;
45318;SDS011;31057;48.498;32.260;2023-08-12T11:41:30;6.32;;;3.03;;
45318;SDS011;31057;48.498;32.260;2023-08-12T11:43:32;5.43;;;3.05;;
45318;SDS011;31057;48.498;32.260;2023-08-12T11:45:34;4.07;;;2.85;;
45318;SDS011;31057;48.498;32.260;2023-08-12T11:47:36;4.85;;;3.92;;
45318;SDS011;31057;48.498;32.260;2023-08-12T11:49:42;5.28;;;3.35;;
45318;SDS011;31057;48.498;32.260;2023-08-12T11:51:44;4.40;;;3.25;;
45318;SDS011;31057;48.498;32.260;2023-08-12T11:53:50;4.95;;;3.65;;
45318;SDS011;31057;48.498;32.260;2023-08-12T11:55:52;8.30;;;4.93;;
45318;SDS011;31057;48.498;32.260;2023-08-12T11:57:54;6.32;;;3.15;;
45318;SDS011;31057;48.498;32.260;2023-08-12T12:00:03;7.13;;;3.60;;
45318;SDS011;31057;48.498;32.260;2023-08-12T12:02:16;3.90;;;3.45;;
45318;SDS011;31057;48.498;32.260;2023-08-12T12:04:18;6.20;;;5.53;;
45318;SDS011;31057;48.498;32.260;2023-08-12T12:06:37;6.93;;;5.22;;
45318;SDS011;31057;48.498;32.260;2023-08-12T12:08:40;6.65;;;4.32;;
45318;SDS011;31057;48.498;32.260;2023-08-12T12:10:42;6.03;;;4.20;;
45318;SDS011;31057;48.498;32.260;2023-08-12T12:12:44;6.95;;;3.13;;
45318;SDS011;31057;48.498;32.260;2023-08-12T12:14:46;6.13;;;3.45;;
45318;SDS011;31057;48.498;32.260;2023-08-12T12:16:49;4.00;;;3.03;;
45318;SDS011;31057;48.498;32.260;2023-08-12T12:18:57;5.50;;;3.10;;
45318;SDS011;31057;48.498;32.260;2023-08-12T12:20:59;6.97;;;5.20;;
45318;SDS011;31057;48.498;32.260;2023-08-12T12:23:05;6.05;;;3.22;;
45318;SDS011;31057;48.498;32.260;2023-08-12T12:25:09;4.72;;;2.97;;
45318;SDS011;31057;48.498;32.260;2023-08-12T12:27:15;4.40;;;3.60;;
45318;SDS011;31057;48.498;32.260;2023-08-12T12:29:17;4.18;;;3.33;;
45318;SDS011;31057;48.498;32.260;2023-08-12T12:31:19;4.70;;;3.40;;
45318;SDS011;31057;48.498;32.260;2023-08-12T12:33:21;5.35;;;4.15;;
45318;SDS011;31057;48.498;32.260;2023-08-12T12:35:26;4.00;;;3.28;;
45318;SDS011;31057;48.498;32.260;2023-08-12T12:37:28;4.32;;;3.70;;
45318;SDS011;31057;48.498;32.260;2023-08-12T12:39:31;3.70;;;2.80;;
45318;SDS011;31057;48.498;32.260;2023-08-12T12:41:33;5.85;;;3.15;;
45318;SDS011;31057;48.498;32.260;2023-08-12T12:43:35;5.30;;;3.33;;
45318;SDS011;31057;48.498;32.260;2023-08-12T12:45:37;5.18;;;3.60;;
45318;SDS011;31057;48.498;32.260;2023-08-12T12:47:39;4.85;;;3.10;;
45318;SDS011;31057;48.498;32.260;2023-08-12T12:49:42;4.32;;;3.67;;
45318;SDS011;31057;48.498;32.260;2023-08-12T12:51:44;4.57;;;2.97;;
45318;SDS011;31057;48.498;32.260;2023-08-12T12:53:46;11.85;;;9.00;;
45318;SDS011;31057;48.498;32.260;2023-08-12T12:55:48;7.13;;;6.43;;
45318;SDS011;31057;48.498;32.260;2023-08-12T12:57:50;6.90;;;4.93;;
45318;SDS011;31057;48.498;32.260;2023-08-12T12:59:52;4.53;;;3.38;;
45318;SDS011;31057;48.498;32.260;2023-08-12T13:01:54;3.45;;;3.10;;
45318;SDS011;31057;48.498;32.260;2023-08-12T13:03:56;4.55;;;3.92;;
45318;SDS011;31057;48.498;32.260;2023-08-12T13:05:58;7.40;;;3.13;;
45318;SDS011;31057;48.498;32.260;2023-08-12T13:08:02;4.38;;;3.38;;
45318;SDS011;31057;48.498;32.260;2023-08-12T13:10:04;8.27;;;6.78;;
45318;SDS011;31057;48.498;32.260;2023-08-12T13:12:06;4.00;;;3.40;;
45318;SDS011;31057;48.498;32.260;2023-08-12T13:14:08;6.28;;;3.38;;
45318;SDS011;31057;48.498;32.260;2023-08-12T13:16:10;7.93;;;3.60;;
45318;SDS011;31057;48.498;32.260;2023-08-12T13:18:12;3.38;;;3.08;;
45318;SDS011;31057;48.498;32.260;2023-08-12T13:20:14;4.85;;;3.08;;
45318;SDS011;31057;48.498;32.260;2023-08-12T13:22:16;4.75;;;3.00;;
45318;SDS011;31057;48.498;32.260;2023-08-12T13:24:18;3.50;;;3.17;;
45318;SDS011;31057;48.498;32.260;2023-08-12T13:26:21;5.57;;;4.00;;
45318;SDS011;31057;48.498;32.260;2023-08-12T13:28:23;7.85;;;6.03;;
45318;SDS011;31057;48.498;32.260;2023-08-12T13:30:25;4.57;;;3.45;;
45318;SDS011;31057;48.498;32.260;2023-08-12T13:32:28;4.93;;;3.35;;
45318;SDS011;31057;48.498;32.260;2023-08-12T13:34:30;11.93;;;8.48;;
45318;SDS011;31057;48.498;32.260;2023-08-12T13:36:32;5.47;;;3.15;;
45318;SDS011;31057;48.498;32.260;2023-08-12T13:38:33;4.72;;;3.33;;
45318;SDS011;31057;48.498;32.260;2023-08-12T13:40:36;7.47;;;2.92;;
45318;SDS011;31057;48.498;32.260;2023-08-12T13:42:38;8.10;;;4.70;;
45318;SDS011;31057;48.498;32.260;2023-08-12T13:44:40;6.30;;;3.38;;
45318;SDS011;31057;48.498;32.260;2023-08-12T13:46:42;5.32;;;3.65;;
45318;SDS011;31057;48.498;32.260;2023-08-12T13:48:44;5.10;;;3.92;;
45318;SDS011;31057;48.498;32.260;2023-08-12T13:52:50;4.03;;;2.90;;
45318;SDS011;31057;48.498;32.260;2023-08-12T13:54:52;7.13;;;3.20;;
45318;SDS011;31057;48.498;32.260;2023-08-12T13:56:54;3.33;;;2.80;;
45318;SDS011;31057;48.498;32.260;2023-08-12T13:58:56;5.63;;;3.53;;
45318;SDS011;31057;48.498;32.260;2023-08-12T14:00:58;7.45;;;4.70;;
45318;SDS011;31057;48.498;32.260;2023-08-12T14:03:00;10.05;;;7.50;;
45318;SDS011;31057;48.498;32.260;2023-08-12T14:05:02;5.13;;;4.63;;
45318;SDS011;31057;48.498;32.260;2023-08-12T14:07:06;5.90;;;4.30;;
45318;SDS011;31057;48.498;32.260;2023-08-12T14:09:09;4.65;;;3.72;;
45318;SDS011;31057;48.498;32.260;2023-08-12T14:11:13;9.00;;;5.10;;
45318;SDS011;31057;48.498;32.260;2023-08-12T14:13:15;7.28;;;4.65;;
45318;SDS011;31057;48.498;32.260;2023-08-12T14:15:17;5.95;;;4.63;;
45318;SDS011;31057;48.498;32.260;2023-08-12T14:17:19;6.82;;;4.80;;
45318;SDS011;31057;48.498;32.260;2023-08-12T14:19:24;8.88;;;6.38;;
45318;SDS011;31057;48.498;32.260;2023-08-12T14:21:26;5.95;;;3.97;;
45318;SDS011;31057;48.498;32.260;2023-08-12T14:23:28;9.75;;;5.32;;
45318;SDS011;31057;48.498;32.260;2023-08-12T14:25:30;5.90;;;5.22;;
45318;SDS011;31057;48.498;32.260;2023-08-12T14:27:32;9.68;;;5.28;;
45318;SDS011;31057;48.498;32.260;2023-08-12T14:29:34;6.78;;;4.07;;
45318;SDS011;31057;48.498;32.260;2023-08-12T14:31:36;5.30;;;4.00;;